Portada
METAR-TAF:

METAR-TAF

Aeropuertos :

Cleveland, Misisipi, Estados Unidos

latitud: 33-45-40N, longitud: 090-45-28W, altitud: 42 m

Observación

El informe se hizo hace 21 minutos, a las 17:55 UTC
Viento 6 kt del norte
Temperatura 11°C
Humedad 100%
Presión 1018 hPa
Visibilidad: 16.1 km
Cielo nuboso a una altura de 1400 ft

METAR: KRNV 271755Z AUTO 01006KT 10SM BKN014 11/11 A3005 RMK AO2 T01100106 10110 20090

Hora: 12:16 (18:16 UTC)


TAF: falta

Observaciones y pronósticos meteorológicos de más de 4000 aeropuertos (mensajes METAR y TAF).

Los puntos amarillos y rojos representan las estaciones disponibles.

Ponga el ratón en el punto deseado para ver el nombre de la estación.

Haga clic para ver las observaciones y los pronósticos meteorológicos.

Para cambiar el mapa : haga clic en los botones verdes con una cruz de color negro para hacer un zoom, en el botón verde con un guión para alejar o en las flechas verdes para mapas adyacentes.


METAR-TAF: